createdAt,value
2022-11-06T00:03:13.105Z,8.35
2022-11-06T00:08:15.891Z,8.37
2022-11-06T00:13:17.752Z,8.34
2022-11-06T00:18:19.569Z,8.26
2022-11-06T00:23:21.242Z,8.24
2022-11-06T00:28:23.319Z,8.25
2022-11-06T00:33:25.003Z,8.25
2022-11-06T00:38:26.697Z,8.23
2022-11-06T00:43:28.394Z,8.28
2022-11-06T00:48:30.233Z,8.28
2022-11-06T00:53:32.054Z,8.31
2022-11-06T00:58:34.076Z,8.34
2022-11-06T01:03:36.061Z,8.29
2022-11-06T01:08:38.343Z,8.29
2022-11-06T01:13:41.103Z,8.26
2022-11-06T01:18:44.162Z,8.19
2022-11-06T01:23:46.847Z,8.16
2022-11-06T01:28:48.811Z,8.16
2022-11-06T01:33:51.129Z,8.17
2022-11-06T01:38:54.750Z,8.18
2022-11-06T01:44:00.867Z,8.25
2022-11-06T01:49:03.666Z,8.23
2022-11-06T01:54:08.430Z,8.24
2022-11-06T01:59:14.020Z,8.23
2022-11-06T02:04:23.536Z,8.21
2022-11-06T02:09:25.876Z,8.26
2022-11-06T02:14:33.270Z,8.25
2022-11-06T02:19:53.983Z,8.30
2022-11-06T02:25:09.618Z,8.24
2022-11-06T02:30:14.637Z,8.23
2022-11-06T02:35:19.585Z,8.28
2022-11-06T02:40:23.434Z,8.24
2022-11-06T02:45:27.731Z,8.29
2022-11-06T02:50:39.560Z,8.27
2022-11-06T02:55:46.236Z,8.23
2022-11-06T03:00:52.793Z,8.23
2022-11-06T03:06:10.534Z,8.23
2022-11-06T03:11:18.805Z,8.23
2022-11-06T03:16:33.490Z,8.21
2022-11-06T03:21:42.369Z,8.19
2022-11-06T03:26:48.770Z,8.21
2022-11-06T03:32:02.555Z,8.12
2022-11-06T03:37:13.094Z,8.16
2022-11-06T03:42:21.115Z,8.14
2022-11-06T03:47:26.828Z,8.12
2022-11-06T03:52:34.306Z,8.08
2022-11-06T03:57:41.516Z,8.07
2022-11-06T04:02:49.083Z,8.05
2022-11-06T04:08:14.904Z,8.09
2022-11-06T04:13:39.719Z,8.07
2022-11-06T04:18:41.379Z,8.00
2022-11-06T04:24:26.774Z,8.09
2022-11-06T04:29:35.549Z,8.05
2022-11-06T04:34:48.067Z,8.13
2022-11-06T04:40:16.607Z,8.16
2022-11-06T04:45:25.711Z,8.11
2022-11-06T04:50:30.562Z,8.11
2022-11-06T04:55:32.452Z,8.11
2022-11-06T05:00:34.345Z,8.09
2022-11-06T05:05:35.991Z,8.03
2022-11-06T05:10:37.660Z,8.05
2022-11-06T05:15:39.685Z,8.06
2022-11-06T05:20:41.269Z,8.01
2022-11-06T05:25:43.392Z,8.07
2022-11-06T05:30:45.556Z,8.05
2022-11-06T05:35:47.278Z,8.06
2022-11-06T05:40:48.903Z,8.10
2022-11-06T05:45:50.697Z,8.12
2022-11-06T05:50:52.578Z,8.08
2022-11-06T05:55:54.196Z,8.08
2022-11-06T06:00:57.893Z,8.09
2022-11-06T06:05:59.615Z,8.08
2022-11-06T06:11:05.291Z,8.06
2022-11-06T06:16:07.173Z,8.06
2022-11-06T06:21:08.997Z,8.04
2022-11-06T06:26:10.637Z,8.04
2022-11-06T06:31:12.248Z,8.03
2022-11-06T06:36:13.963Z,8.08
2022-11-06T06:41:17.324Z,8.11
2022-11-06T06:46:18.993Z,8.06
2022-11-06T06:51:23.992Z,8.01
2022-11-06T06:56:26.341Z,8.05
2022-11-06T07:01:28.106Z,8.03
2022-11-06T07:06:30.140Z,8.01
2022-11-06T07:11:32.214Z,8.01
2022-11-06T07:16:34.059Z,8.08
2022-11-06T07:21:35.939Z,8.06
2022-11-06T07:26:37.945Z,7.97
2022-11-06T07:31:42.536Z,8.00
2022-11-06T07:36:44.470Z,8.04
2022-11-06T07:41:46.173Z,8.00
2022-11-06T07:46:47.811Z,7.95
2022-11-06T07:51:49.622Z,7.99
2022-11-06T07:56:51.383Z,8.02
2022-11-06T08:01:53.105Z,7.99
2022-11-06T08:06:54.945Z,7.99
2022-11-06T08:11:56.990Z,7.98
2022-11-06T08:16:58.673Z,8.08
2022-11-06T08:22:00.541Z,8.15
2022-11-06T08:27:03.163Z,8.12
2022-11-06T08:32:04.984Z,8.12
2022-11-06T08:37:06.711Z,8.15
2022-11-06T08:42:08.405Z,8.21
2022-11-06T08:47:09.980Z,8.20
2022-11-06T08:52:11.633Z,8.22
2022-11-06T08:57:13.375Z,8.22
2022-11-06T09:02:15.675Z,8.27
2022-11-06T09:07:17.964Z,8.33
2022-11-06T09:12:19.694Z,8.30
2022-11-06T09:17:23.810Z,8.31
2022-11-06T09:22:25.520Z,8.35
2022-11-06T09:27:27.261Z,8.37
2022-11-06T09:32:28.892Z,8.36
2022-11-06T09:37:30.573Z,8.40
2022-11-06T09:43:02.416Z,8.44
2022-11-06T09:48:10.193Z,8.43
2022-11-06T09:53:27.466Z,8.49
2022-11-06T09:58:37.400Z,8.52
2022-11-06T10:04:06.827Z,8.60
2022-11-06T10:09:08.569Z,8.63
2022-11-06T10:14:22.983Z,8.68
2022-11-06T10:19:39.486Z,8.62
2022-11-06T10:24:55.636Z,8.67
2022-11-06T10:30:08.964Z,8.65
2022-11-06T10:35:20.811Z,8.69
2022-11-06T10:40:26.151Z,8.71
2022-11-06T10:45:29.391Z,8.75
2022-11-06T10:50:46.782Z,8.85
2022-11-06T10:56:00.572Z,8.80
2022-11-06T11:01:06.007Z,8.86
2022-11-06T11:06:07.905Z,8.78
2022-11-06T11:11:15.542Z,8.87
2022-11-06T11:16:18.601Z,8.89
2022-11-06T11:21:20.982Z,8.90
2022-11-06T11:26:28.974Z,8.88
2022-11-06T11:31:33.339Z,8.85
2022-11-06T11:36:58.263Z,8.80
2022-11-06T11:42:29.334Z,8.80
2022-11-06T11:47:31.112Z,8.74
2022-11-06T11:52:32.907Z,8.74
2022-11-06T11:57:34.742Z,8.65
2022-11-06T12:02:42.669Z,8.71
2022-11-06T12:07:49.775Z,8.68
2022-11-06T12:12:53.199Z,8.70
2022-11-06T12:17:59.568Z,8.71
2022-11-06T12:23:04.797Z,8.61
2022-11-06T12:28:14.228Z,8.61
2022-11-06T12:33:59.695Z,8.61
2022-11-06T12:38:55.515Z,8.63
2022-11-06T12:43:58.376Z,8.65
2022-11-06T12:49:26.318Z,8.65
2022-11-06T12:54:47.735Z,8.70
2022-11-06T12:59:55.105Z,8.79
2022-11-06T13:05:16.540Z,8.67
2022-11-06T13:10:21.351Z,8.64
2022-11-06T13:15:26.014Z,8.58
2022-11-06T13:20:40.304Z,8.53
2022-11-06T13:26:12.180Z,8.52
2022-11-06T13:31:18.765Z,8.53
2022-11-06T13:36:22.762Z,8.51
2022-11-06T13:41:31.180Z,8.56
2022-11-06T13:47:10.300Z,8.53
2022-11-06T13:52:27.151Z,8.49
2022-11-06T13:57:39.618Z,8.38
2022-11-06T14:03:09.844Z,8.40
2022-11-06T14:08:38.731Z,8.31
2022-11-06T14:13:41.135Z,8.23
2022-11-06T14:18:43.207Z,8.20
2022-11-06T14:23:44.783Z,8.14
2022-11-06T14:28:46.628Z,8.16
2022-11-06T14:33:49.443Z,8.16
2022-11-06T14:38:52.616Z,8.11
2022-11-06T14:43:56.539Z,8.03
2022-11-06T14:49:10.190Z,8.10
2022-11-06T14:54:22.867Z,8.11
2022-11-06T14:59:35.258Z,7.97
2022-11-06T15:04:44.559Z,7.86
2022-11-06T15:09:47.342Z,7.67
2022-11-06T15:14:48.919Z,7.60
2022-11-06T15:20:00.452Z,7.63
2022-11-06T15:25:17.630Z,7.64
2022-11-06T15:30:20.926Z,7.58
2022-11-06T15:35:26.176Z,7.60
2022-11-06T15:40:30.741Z,7.51
2022-11-06T15:45:32.699Z,7.49
2022-11-06T15:50:37.089Z,7.45
2022-11-06T15:55:45.142Z,7.42
2022-11-06T16:00:46.993Z,7.33
2022-11-06T16:05:49.568Z,7.32
2022-11-06T16:10:52.267Z,7.40
2022-11-06T16:16:00.583Z,7.14
2022-11-06T16:21:08.472Z,7.13
2022-11-06T16:26:14.235Z,6.95
2022-11-06T16:31:23.502Z,6.95
2022-11-06T16:36:27.458Z,7.00
2022-11-06T16:42:02.851Z,6.80
2022-11-06T16:47:04.566Z,6.81
2022-11-06T16:52:39.341Z,6.76
2022-11-06T16:57:59.071Z,6.78
2022-11-06T17:03:20.500Z,6.76
2022-11-06T17:08:28.460Z,6.77
2022-11-06T17:13:35.159Z,6.78
2022-11-06T17:18:38.984Z,6.68
2022-11-06T17:23:41.077Z,6.65
2022-11-06T17:28:42.902Z,6.52
2022-11-06T17:33:45.541Z,6.59
2022-11-06T17:38:48.163Z,6.47
2022-11-06T17:43:50.155Z,6.54
2022-11-06T17:48:51.815Z,6.45
2022-11-06T17:53:54.845Z,6.49
2022-11-06T17:58:56.525Z,6.57
2022-11-06T18:03:58.489Z,6.53
2022-11-06T18:09:01.841Z,6.64
2022-11-06T18:14:03.875Z,6.64
2022-11-06T18:19:07.880Z,6.67
2022-11-06T18:24:09.884Z,6.74
2022-11-06T18:29:13.516Z,6.82
2022-11-06T18:34:20.665Z,6.82
2022-11-06T18:39:26.873Z,6.87
2022-11-06T18:44:30.246Z,6.95
2022-11-06T18:49:31.962Z,6.98
2022-11-06T18:54:34.698Z,6.91
2022-11-06T18:59:36.477Z,6.97
2022-11-06T19:04:38.550Z,7.01
2022-11-06T19:09:40.520Z,7.02
2022-11-06T19:14:42.215Z,7.03
2022-11-06T19:19:44.127Z,7.07
2022-11-06T19:24:46.772Z,7.13
2022-11-06T19:29:48.539Z,7.13
2022-11-06T19:34:50.299Z,7.25
2022-11-06T19:39:53.714Z,7.24
2022-11-06T19:44:58.195Z,7.21
2022-11-06T19:50:04.727Z,7.28
2022-11-06T19:55:26.091Z,7.34
2022-11-06T20:00:29.130Z,7.40
2022-11-06T20:05:31.140Z,7.47
2022-11-06T20:10:35.528Z,7.52
2022-11-06T20:15:39.536Z,7.55
2022-11-06T20:20:41.331Z,7.60
2022-11-06T20:25:44.615Z,7.65
2022-11-06T20:30:47.688Z,7.72
2022-11-06T20:35:49.621Z,7.79
2022-11-06T20:40:56.205Z,7.87
2022-11-06T20:46:03.341Z,7.88
2022-11-06T20:51:11.743Z,7.87
2022-11-06T20:56:16.421Z,7.92
2022-11-06T21:01:20.854Z,7.95
2022-11-06T21:06:24.418Z,7.93
2022-11-06T21:11:27.880Z,7.96
2022-11-06T21:16:36.074Z,7.98
2022-11-06T21:21:37.827Z,8.00
2022-11-06T21:26:40.021Z,7.99
2022-11-06T21:31:48.657Z,8.04
2022-11-06T21:36:51.252Z,8.02
2022-11-06T21:41:52.971Z,8.07
2022-11-06T21:46:54.632Z,8.07
2022-11-06T21:52:16.422Z,8.10
2022-11-06T21:57:18.029Z,8.10
2022-11-06T22:02:19.910Z,8.10
2022-11-06T22:07:21.651Z,8.07
2022-11-06T22:12:23.987Z,8.07
2022-11-06T22:17:25.819Z,8.06
2022-11-06T22:22:27.482Z,8.14
2022-11-06T22:27:29.209Z,8.14
2022-11-06T22:32:30.842Z,8.17
2022-11-06T22:37:32.513Z,8.17
2022-11-06T22:42:34.226Z,8.24
2022-11-06T22:47:36.251Z,8.21
2022-11-06T22:52:37.890Z,8.24
2022-11-06T22:57:39.670Z,8.27
2022-11-06T23:02:41.451Z,8.19
2022-11-06T23:07:43.180Z,8.22
2022-11-06T23:12:44.924Z,8.27
2022-11-06T23:17:46.590Z,8.29
2022-11-06T23:22:48.310Z,8.33
2022-11-06T23:27:50.214Z,8.33
2022-11-06T23:32:52.498Z,8.34
2022-11-06T23:37:54.206Z,8.36
2022-11-06T23:42:57.567Z,8.32
2022-11-06T23:48:02.124Z,8.38
2022-11-06T23:53:06.352Z,8.40
2022-11-06T23:58:08.442Z,8.46
